AIB99 ENZV-ENZV
Flight info
| Callsign | AIB99 |
|---|---|
| Flight time | 0h 43m |
| Altitude | 15000 |
| Route | ENZV ENZV |
| Aircraft | A20N/M-SDE2E3FGHIRWXY/LB1 |
Departure
| Time | 2026-04-23 17:43 |
|---|---|
| Airport | Stavanger Airport, Sola (ENZV) |
Arrival
| Time | 2026-04-23 18:27 |
|---|---|
| Airport | Stavanger Airport, Sola (ENZV) |
| Time | Latitude | Longitude | Altitude | Speed | Heading |
|---|---|---|---|---|---|
| 2026-04-23 17:23 | 58.88354 | 5.63013 | 31 ft | 0 kts | 225° |
| 2026-04-23 17:35 | 58.88366 | 5.63036 | 31 ft | 2 kts | 224° |
| 2026-04-23 17:35 | 58.88380 | 5.63063 | 31 ft | 2 kts | 224° |
| 2026-04-23 17:36 | 58.88391 | 5.63083 | 32 ft | 2 kts | 224° |
| 2026-04-23 17:36 | 58.88393 | 5.63087 | 32 ft | 0 kts | 225° |
| 2026-04-23 17:38 | 58.88391 | 5.63084 | 31 ft | 0 kts | 221° |
| 2026-04-23 17:38 | 58.88386 | 5.63089 | 31 ft | 3 kts | 124° |
| 2026-04-23 17:39 | 58.88392 | 5.63176 | 32 ft | 7 kts | 99° |
| 2026-04-23 17:39 | 58.88349 | 5.63241 | 32 ft | 9 kts | 161° |
| 2026-04-23 17:39 | 58.88249 | 5.63294 | 31 ft | 18 kts | 166° |
| 2026-04-23 17:39 | 58.88122 | 5.63262 | 30 ft | 18 kts | 213° |
| 2026-04-23 17:40 | 58.88029 | 5.63249 | 29 ft | 15 kts | 132° |
| 2026-04-23 17:40 | 58.87948 | 5.63368 | 30 ft | 16 kts | 186° |
| 2026-04-23 17:40 | 58.87833 | 5.63292 | 27 ft | 19 kts | 184° |
| 2026-04-23 17:40 | 58.87676 | 5.63290 | 27 ft | 23 kts | 178° |
| 2026-04-23 17:41 | 58.87513 | 5.63295 | 27 ft | 23 kts | 179° |
| 2026-04-23 17:41 | 58.87183 | 5.63306 | 27 ft | 23 kts | 178° |
| 2026-04-23 17:41 | 58.87038 | 5.63320 | 29 ft | 14 kts | 152° |
| 2026-04-23 17:42 | 58.87030 | 5.63621 | 32 ft | 13 kts | 61° |
| 2026-04-23 17:42 | 58.87086 | 5.63785 | 32 ft | 14 kts | 25° |
| 2026-04-23 17:42 | 58.87175 | 5.63793 | 32 ft | 12 kts | 358° |
| 2026-04-23 17:43 | 58.87329 | 5.63785 | 30 ft | 52 kts | 359° |
| 2026-04-23 17:43 | 58.87976 | 5.63768 | 34 ft | 130 kts | 359° |
| 2026-04-23 17:43 | 58.88977 | 5.63766 | 473 ft | 155 kts | 357° |
| 2026-04-23 17:43 | 58.90087 | 5.63754 | 1240 ft | 170 kts | 358° |
| 2026-04-23 17:44 | 58.91262 | 5.63673 | 2285 ft | 174 kts | 357° |
| 2026-04-23 17:44 | 58.92515 | 5.63558 | 3107 ft | 192 kts | 356° |
| 2026-04-23 17:44 | 58.95389 | 5.63309 | 4560 ft | 225 kts | 356° |
| 2026-04-23 17:45 | 58.96968 | 5.63009 | 4874 ft | 228 kts | 345° |
| 2026-04-23 17:45 | 58.99066 | 5.58619 | 4940 ft | 247 kts | 289° |
| 2026-04-23 17:45 | 58.98963 | 5.55195 | 4941 ft | 265 kts | 259° |
| 2026-04-23 17:46 | 58.96337 | 5.49871 | 4956 ft | 290 kts | 216° |
| 2026-04-23 17:46 | 58.94574 | 5.47975 | 4957 ft | 292 kts | 214° |
| 2026-04-23 17:46 | 58.92778 | 5.46133 | 4959 ft | 292 kts | 213° |
| 2026-04-23 17:47 | 58.90980 | 5.44338 | 4960 ft | 294 kts | 209° |
| 2026-04-23 17:47 | 58.89000 | 5.43348 | 4832 ft | 296 kts | 189° |
| 2026-04-23 17:47 | 58.84897 | 5.43011 | 4034 ft | 295 kts | 184° |
| 2026-04-23 17:48 | 58.82891 | 5.42950 | 3758 ft | 281 kts | 183° |
| 2026-04-23 17:48 | 58.80976 | 5.42903 | 3481 ft | 267 kts | 183° |
| 2026-04-23 17:48 | 58.79156 | 5.42861 | 3225 ft | 262 kts | 183° |
| 2026-04-23 17:48 | 58.77330 | 5.42818 | 2990 ft | 258 kts | 183° |
| 2026-04-23 17:49 | 58.75520 | 5.42773 | 2961 ft | 260 kts | 183° |
| 2026-04-23 17:49 | 58.73719 | 5.42732 | 2956 ft | 260 kts | 184° |
| 2026-04-23 17:49 | 58.71918 | 5.42693 | 2966 ft | 260 kts | 183° |
| 2026-04-23 17:49 | 58.70092 | 5.42649 | 2962 ft | 261 kts | 183° |
| 2026-04-23 17:50 | 58.68289 | 5.42650 | 2955 ft | 262 kts | 176° |
| 2026-04-23 17:50 | 58.65381 | 5.46111 | 2938 ft | 244 kts | 110° |
| 2026-04-23 17:50 | 58.64831 | 5.49151 | 2941 ft | 234 kts | 96° |
| 2026-04-23 17:51 | 58.64472 | 5.52080 | 2923 ft | 219 kts | 94° |
| 2026-04-23 17:51 | 58.64155 | 5.54916 | 2922 ft | 215 kts | 88° |
| 2026-04-23 17:51 | 58.65184 | 5.59351 | 2919 ft | 177 kts | 22° |
| 2026-04-23 17:52 | 58.66279 | 5.59979 | 2916 ft | 157 kts | 5° |
| 2026-04-23 17:52 | 58.68243 | 5.60644 | 2878 ft | 129 kts | 5° |
| 2026-04-23 17:52 | 58.69087 | 5.60931 | 2877 ft | 119 kts | 5° |
| 2026-04-23 17:53 | 58.70792 | 5.61479 | 2926 ft | 130 kts | 5° |
| 2026-04-23 17:53 | 58.71701 | 5.61771 | 2921 ft | 132 kts | 5° |
| 2026-04-23 17:53 | 58.72568 | 5.62056 | 2895 ft | 121 kts | 5° |
| 2026-04-23 17:54 | 58.73415 | 5.62328 | 2530 ft | 128 kts | 5° |
| 2026-04-23 17:54 | 58.74304 | 5.62609 | 2175 ft | 132 kts | 6° |
| 2026-04-23 17:54 | 58.76108 | 5.63190 | 1949 ft | 133 kts | 7° |
| 2026-04-23 17:55 | 58.77951 | 5.63789 | 1939 ft | 134 kts | 6° |
| 2026-04-23 17:55 | 58.78871 | 5.64028 | 1934 ft | 132 kts | 360° |
| 2026-04-23 17:55 | 58.79785 | 5.64024 | 1932 ft | 132 kts | 357° |
| 2026-04-23 17:56 | 58.80712 | 5.63994 | 1934 ft | 132 kts | 357° |
| 2026-04-23 17:56 | 58.82559 | 5.63933 | 1936 ft | 134 kts | 357° |
| 2026-04-23 17:56 | 58.83493 | 5.63893 | 1961 ft | 138 kts | 353° |
| 2026-04-23 17:57 | 58.84381 | 5.63010 | 2293 ft | 163 kts | 316° |
| 2026-04-23 17:57 | 58.85004 | 5.61051 | 2951 ft | 185 kts | 305° |
| 2026-04-23 17:57 | 58.86317 | 5.56065 | 4340 ft | 231 kts | 303° |
| 2026-04-23 17:58 | 58.87061 | 5.53223 | 4785 ft | 239 kts | 303° |
| 2026-04-23 17:58 | 58.87811 | 5.50357 | 4947 ft | 241 kts | 303° |
| 2026-04-23 17:58 | 58.88563 | 5.47482 | 4953 ft | 239 kts | 303° |
| 2026-04-23 17:58 | 58.89310 | 5.44621 | 4956 ft | 239 kts | 303° |
| 2026-04-23 17:59 | 58.90030 | 5.41714 | 4940 ft | 242 kts | 296° |
| 2026-04-23 17:59 | 58.90197 | 5.38430 | 4703 ft | 255 kts | 269° |
| 2026-04-23 17:59 | 58.89484 | 5.35223 | 4243 ft | 275 kts | 239° |
| 2026-04-23 17:59 | 58.87973 | 5.32919 | 3974 ft | 286 kts | 207° |
| 2026-04-23 18:00 | 58.85992 | 5.32064 | 3974 ft | 295 kts | 187° |
| 2026-04-23 18:00 | 58.83940 | 5.31833 | 3971 ft | 296 kts | 183° |
| 2026-04-23 18:00 | 58.81872 | 5.31711 | 3960 ft | 296 kts | 183° |
| 2026-04-23 18:00 | 58.79826 | 5.31618 | 3957 ft | 297 kts | 182° |
| 2026-04-23 18:01 | 58.77759 | 5.31526 | 3955 ft | 297 kts | 183° |
| 2026-04-23 18:01 | 58.75672 | 5.31432 | 3956 ft | 297 kts | 182° |
| 2026-04-23 18:01 | 58.73618 | 5.31330 | 3956 ft | 297 kts | 182° |
| 2026-04-23 18:01 | 58.71554 | 5.31226 | 3957 ft | 298 kts | 183° |
| 2026-04-23 18:02 | 58.70182 | 5.31159 | 3940 ft | 296 kts | 183° |
| 2026-04-23 18:02 | 58.67455 | 5.31034 | 3498 ft | 294 kts | 182° |
| 2026-04-23 18:02 | 58.65427 | 5.31140 | 3099 ft | 294 kts | 168° |
| 2026-04-23 18:02 | 58.63600 | 5.32665 | 2962 ft | 286 kts | 138° |
| 2026-04-23 18:03 | 58.62359 | 5.35511 | 2956 ft | 276 kts | 109° |
| 2026-04-23 18:03 | 58.61780 | 5.38981 | 2952 ft | 270 kts | 95° |
| 2026-04-23 18:03 | 58.61404 | 5.42471 | 2946 ft | 268 kts | 93° |
| 2026-04-23 18:03 | 58.61059 | 5.46009 | 2948 ft | 269 kts | 92° |
| 2026-04-23 18:04 | 58.60722 | 5.49489 | 2945 ft | 269 kts | 92° |
| 2026-04-23 18:04 | 58.60425 | 5.53016 | 2936 ft | 264 kts | 84° |
| 2026-04-23 18:04 | 58.60746 | 5.56314 | 2926 ft | 245 kts | 54° |
| 2026-04-23 18:04 | 58.61803 | 5.58729 | 2930 ft | 231 kts | 28° |
| 2026-04-23 18:05 | 58.63239 | 5.59872 | 2939 ft | 224 kts | 8° |
| 2026-04-23 18:05 | 58.64764 | 5.60521 | 2930 ft | 220 kts | 8° |
| 2026-04-23 18:05 | 58.66206 | 5.61161 | 2919 ft | 205 kts | 8° |
| 2026-04-23 18:05 | 58.67534 | 5.61756 | 2916 ft | 190 kts | 8° |
| 2026-04-23 18:06 | 58.68771 | 5.62310 | 2909 ft | 175 kts | 8° |
| 2026-04-23 18:06 | 58.69913 | 5.62819 | 2905 ft | 160 kts | 7° |
| 2026-04-23 18:06 | 58.70957 | 5.63368 | 2996 ft | 147 kts | 10° |
| 2026-04-23 18:06 | 58.71892 | 5.63777 | 2972 ft | 131 kts | 5° |
| 2026-04-23 18:07 | 58.72735 | 5.63973 | 2883 ft | 116 kts | 1° |
| 2026-04-23 18:07 | 58.73525 | 5.64075 | 2713 ft | 112 kts | 359° |
| 2026-04-23 18:07 | 58.74307 | 5.64121 | 2564 ft | 112 kts | 357° |
| 2026-04-23 18:07 | 58.75091 | 5.64133 | 2411 ft | 111 kts | 356° |
| 2026-04-23 18:08 | 58.75604 | 5.64131 | 2309 ft | 111 kts | 356° |
| 2026-04-23 18:08 | 58.76637 | 5.64113 | 2109 ft | 111 kts | 356° |
| 2026-04-23 18:08 | 58.77412 | 5.64094 | 1962 ft | 110 kts | 356° |
| 2026-04-23 18:08 | 58.78178 | 5.64072 | 1815 ft | 110 kts | 356° |
| 2026-04-23 18:09 | 58.78937 | 5.64051 | 1665 ft | 110 kts | 356° |
| 2026-04-23 18:09 | 58.79703 | 5.64028 | 1515 ft | 109 kts | 356° |
| 2026-04-23 18:09 | 58.80464 | 5.63985 | 1392 ft | 109 kts | 356° |
| 2026-04-23 18:09 | 58.81222 | 5.63932 | 1298 ft | 109 kts | 354° |
| 2026-04-23 18:10 | 58.81986 | 5.63906 | 1178 ft | 109 kts | 357° |
| 2026-04-23 18:10 | 58.82744 | 5.63918 | 1022 ft | 109 kts | 356° |
| 2026-04-23 18:10 | 58.83500 | 5.63898 | 801 ft | 108 kts | 355° |
| 2026-04-23 18:10 | 58.84243 | 5.63868 | 681 ft | 108 kts | 355° |
| 2026-04-23 18:11 | 58.84995 | 5.63834 | 492 ft | 108 kts | 355° |
| 2026-04-23 18:11 | 58.85741 | 5.63834 | 339 ft | 107 kts | 355° |
| 2026-04-23 18:11 | 58.86492 | 5.63811 | 193 ft | 107 kts | 354° |
| 2026-04-23 18:11 | 58.87230 | 5.63792 | 58 ft | 107 kts | 354° |
| 2026-04-23 18:12 | 58.87957 | 5.63760 | 35 ft | 115 kts | 358° |
| 2026-04-23 18:12 | 58.88846 | 5.63772 | 492 ft | 142 kts | 356° |
| 2026-04-23 18:12 | 58.89925 | 5.63747 | 1216 ft | 164 kts | 355° |
| 2026-04-23 18:12 | 58.91052 | 5.63638 | 2234 ft | 171 kts | 354° |
| 2026-04-23 18:13 | 58.92258 | 5.63488 | 3255 ft | 177 kts | 354° |
| 2026-04-23 18:13 | 58.93444 | 5.63338 | 4084 ft | 173 kts | 354° |
| 2026-04-23 18:13 | 58.94637 | 5.63185 | 4654 ft | 174 kts | 354° |
| 2026-04-23 18:13 | 58.95849 | 5.63024 | 4931 ft | 174 kts | 354° |
| 2026-04-23 18:14 | 58.96648 | 5.62916 | 4953 ft | 174 kts | 354° |
| 2026-04-23 18:14 | 58.98270 | 5.62703 | 4966 ft | 174 kts | 355° |
| 2026-04-23 18:14 | 58.99456 | 5.63151 | 4958 ft | 181 kts | 26° |
| 2026-04-23 18:14 | 59.00276 | 5.65083 | 4963 ft | 199 kts | 62° |
| 2026-04-23 18:15 | 59.00337 | 5.67846 | 4968 ft | 219 kts | 94° |
| 2026-04-23 18:15 | 58.99870 | 5.70745 | 4974 ft | 226 kts | 102° |
| 2026-04-23 18:15 | 58.99300 | 5.73588 | 4972 ft | 227 kts | 103° |
| 2026-04-23 18:15 | 58.98710 | 5.76428 | 4967 ft | 228 kts | 103° |
| 2026-04-23 18:16 | 58.98112 | 5.79282 | 4970 ft | 228 kts | 104° |
| 2026-04-23 18:16 | 58.97515 | 5.82153 | 4968 ft | 227 kts | 103° |
| 2026-04-23 18:16 | 58.96921 | 5.85008 | 4966 ft | 228 kts | 103° |
| 2026-04-23 18:17 | 58.95727 | 5.90738 | 4965 ft | 228 kts | 103° |
| 2026-04-23 18:17 | 58.95132 | 5.93574 | 4965 ft | 228 kts | 103° |
| 2026-04-23 18:17 | 58.94532 | 5.96436 | 4956 ft | 227 kts | 103° |
| 2026-04-23 18:17 | 58.93930 | 5.99278 | 4946 ft | 227 kts | 103° |
| 2026-04-23 18:18 | 58.93330 | 6.02111 | 4946 ft | 227 kts | 103° |
| 2026-04-23 18:18 | 58.92728 | 6.04974 | 4942 ft | 227 kts | 103° |
| 2026-04-23 18:18 | 58.92129 | 6.07808 | 4939 ft | 228 kts | 104° |
| 2026-04-23 18:18 | 58.91535 | 6.10634 | 4920 ft | 228 kts | 103° |
| 2026-04-23 18:19 | 58.90944 | 6.13473 | 4918 ft | 227 kts | 104° |
| 2026-04-23 18:19 | 58.90133 | 6.16113 | 4887 ft | 237 kts | 134° |
| 2026-04-23 18:19 | 58.88632 | 6.17374 | 4896 ft | 239 kts | 180° |
| 2026-04-23 18:19 | 58.87094 | 6.16548 | 4899 ft | 225 kts | 226° |
| 2026-04-23 18:20 | 58.86250 | 6.14240 | 4918 ft | 207 kts | 260° |
| 2026-04-23 18:20 | 58.85818 | 6.11597 | 4919 ft | 209 kts | 262° |
| 2026-04-23 18:20 | 58.85329 | 6.08922 | 4914 ft | 212 kts | 258° |
| 2026-04-23 18:20 | 58.84752 | 6.06288 | 4917 ft | 214 kts | 255° |
| 2026-04-23 18:21 | 58.84115 | 6.03688 | 4921 ft | 214 kts | 253° |
| 2026-04-23 18:21 | 58.83452 | 6.01137 | 4724 ft | 213 kts | 253° |
| 2026-04-23 18:21 | 58.82819 | 5.98580 | 4403 ft | 208 kts | 265° |
| 2026-04-23 18:21 | 58.82762 | 5.95941 | 4112 ft | 191 kts | 289° |
| 2026-04-23 18:22 | 58.83085 | 5.93563 | 3966 ft | 178 kts | 298° |
| 2026-04-23 18:22 | 58.83481 | 5.91363 | 3854 ft | 168 kts | 297° |
| 2026-04-23 18:22 | 58.83819 | 5.89345 | 3883 ft | 150 kts | 297° |
| 2026-04-23 18:22 | 58.84110 | 5.87494 | 3701 ft | 136 kts | 297° |
| 2026-04-23 18:23 | 58.84282 | 5.86357 | 3524 ft | 129 kts | 298° |
| 2026-04-23 18:23 | 58.84808 | 5.82805 | 2855 ft | 112 kts | 298° |
| 2026-04-23 18:24 | 58.85245 | 5.79915 | 2139 ft | 113 kts | 296° |
| 2026-04-23 18:24 | 58.85462 | 5.78471 | 1962 ft | 113 kts | 296° |
| 2026-04-23 18:24 | 58.85654 | 5.76951 | 1786 ft | 119 kts | 292° |
| 2026-04-23 18:25 | 58.86062 | 5.73982 | 1148 ft | 111 kts | 297° |
| 2026-04-23 18:25 | 58.86286 | 5.72560 | 917 ft | 111 kts | 295° |
| 2026-04-23 18:25 | 58.86505 | 5.71126 | 784 ft | 109 kts | 296° |
| 2026-04-23 18:25 | 58.86738 | 5.69722 | 666 ft | 109 kts | 296° |
| 2026-04-23 18:26 | 58.86966 | 5.68329 | 565 ft | 110 kts | 293° |
| 2026-04-23 18:26 | 58.87183 | 5.66913 | 415 ft | 110 kts | 294° |
| 2026-04-23 18:26 | 58.87402 | 5.65510 | 264 ft | 109 kts | 294° |
| 2026-04-23 18:26 | 58.87619 | 5.64099 | 71 ft | 109 kts | 294° |
| 2026-04-23 18:27 | 58.87813 | 5.62906 | 25 ft | 37 kts | 289° |
| 2026-04-23 18:27 | 58.87837 | 5.62761 | 23 ft | 6 kts | 288° |
| 2026-04-23 18:27 | 58.87851 | 5.62670 | 23 ft | 7 kts | 286° |
| 2026-04-23 18:27 | 58.87868 | 5.62561 | 23 ft | 8 kts | 287° |
| 2026-04-23 18:28 | 58.87880 | 5.62488 | 23 ft | 1 kts | 313° |
| 2026-04-23 18:28 | 58.87902 | 5.62486 | 23 ft | 3 kts | 10° |
| 2026-04-23 18:28 | 58.87930 | 5.62499 | 23 ft | 5 kts | 15° |
| 2026-04-23 18:28 | 58.87991 | 5.62538 | 23 ft | 10 kts | 22° |
| 2026-04-23 18:29 | 58.88018 | 5.62636 | 23 ft | 9 kts | 102° |
| 2026-04-23 18:29 | 58.87996 | 5.62784 | 23 ft | 11 kts | 105° |
| 2026-04-23 18:29 | 58.87989 | 5.62926 | 25 ft | 9 kts | 83° |
| 2026-04-23 18:29 | 58.87989 | 5.63045 | 26 ft | 8 kts | 99° |
| 2026-04-23 18:30 | 58.87970 | 5.63171 | 26 ft | 10 kts | 107° |
| 2026-04-23 18:30 | 58.87960 | 5.63236 | 27 ft | 1 kts | 107° |